Time;durP1;ratioP1;P1;durP2;ratioP2;P2;SDS_P1;SDS_P2;PMS_P1;PMS_P2;Temp;Humidity;BMP_temperature;BMP_pressure;BME280_temperature;BME280_humidity;BME280_pressure;Samples;Min_cycle;Max_cycle;Signal;HPM_P1;HPM_P2
2022/06/02 00:00:14;;;;;;;4.85;2.95;;;12.30;99.90;;;;;;6727331;88;20175;-81
2022/06/02 00:10:41;;;;;;;;;;;12.40;99.90;;;;;;6727088;88;20886;-81
2022/06/02 00:20:47;;;;;;;5.10;3.25;;;12.30;99.90;;;;;;6730460;88;20061;-78
2022/06/02 00:31:20;;;;;;;5.82;3.22;;;12.20;99.90;;;;;;6731339;88;20732;-80
2022/06/02 00:41:46;;;;;;;5.05;3.22;;;11.90;99.90;;;;;;6730533;88;20193;-78
2022/06/02 00:52:11;;;;;;;6.25;3.72;;;11.90;99.90;;;;;;6732603;88;20190;-79
2022/06/02 01:02:12;;;;;;;5.95;3.70;;;11.60;99.90;;;;;;6732697;88;20221;-79
2022/06/02 01:12:38;;;;;;;4.45;2.97;;;11.50;99.90;;;;;;6738385;88;20247;-79
2022/06/02 01:23:16;;;;;;;4.50;3.05;;;11.70;99.90;;;;;;6732926;88;20221;-81
2022/06/02 01:33:33;;;;;;;4.85;2.78;;;11.50;99.90;;;;;;6733544;88;20212;-81
2022/06/02 01:43:50;;;;;;;6.12;3.10;;;11.40;99.90;;;;;;6732436;88;20185;-82
2022/06/02 01:54:26;;;;;;;5.87;3.35;;;11.00;99.90;;;;;;6730969;88;20651;-80
2022/06/02 02:04:57;;;;;;;5.40;3.70;;;10.80;99.90;;;;;;6730338;88;20672;-81
2022/06/02 02:15:12;;;;;;;6.47;3.10;;;11.00;99.90;;;;;;6731075;88;20229;-81
2022/06/02 02:25:21;;;;;;;5.10;3.78;;;11.00;99.90;;;;;;6738355;88;20198;-81
2022/06/02 02:35:33;;;;;;;5.65;3.72;;;10.40;99.90;;;;;;6735255;88;20197;-80
2022/06/02 02:45:39;;;;;;;7.05;4.00;;;10.00;99.90;;;;;;6734033;88;20198;-81
2022/06/02 02:55:49;;;;;;;7.00;4.03;;;9.90;99.90;;;;;;6719706;88;20212;-81
2022/06/02 03:06:18;;;;;;;5.90;4.22;;;9.70;99.90;;;;;;6733347;88;21456;-81
2022/06/02 03:16:21;;;;;;;7.40;4.90;;;9.70;99.90;;;;;;6729868;88;20212;-81
2022/06/02 03:26:51;;;;;;;10.10;5.43;;;9.60;99.90;;;;;;6727538;88;20221;-80
2022/06/02 03:37:13;;;;;;;8.25;4.70;;;10.00;99.90;;;;;;6727030;88;20305;-80
2022/06/02 03:47:41;;;;;;;6.37;4.37;;;9.80;99.90;;;;;;6730673;88;20687;-81
2022/06/02 04:08:07;;;;;;;7.82;4.70;;;9.70;99.90;;;;;;6739411;88;20604;-76
2022/06/02 04:18:36;;;;;;;6.40;4.12;;;9.40;99.90;;;;;;6746164;88;20193;-76
2022/06/02 04:29:04;;;;;;;7.97;5.10;;;9.20;99.90;;;;;;6748607;88;20216;-77
2022/06/02 04:39:19;;;;;;;9.23;4.90;;;9.60;99.90;;;;;;6731288;88;20302;-77
2022/06/02 04:49:26;;;;;;;6.53;4.53;;;9.60;99.90;;;;;;6735606;88;20255;-77
2022/06/02 04:59:51;;;;;;;8.25;5.40;;;9.60;99.90;;;;;;6739433;88;20244;-78
2022/06/02 05:09:51;;;;;;;8.15;5.72;;;9.70;99.90;;;;;;6728084;88;20652;-77
2022/06/02 05:20:12;;;;;;;10.13;6.07;;;10.10;99.90;;;;;;6744170;88;20185;-78
2022/06/02 05:30:33;;;;;;;10.45;6.62;;;10.10;99.90;;;;;;6735096;88;20174;-77
2022/06/02 05:40:53;;;;;;;13.40;7.53;;;10.50;99.90;;;;;;6724194;88;20287;-77
2022/06/02 05:50:59;;;;;;;12.35;8.38;;;10.50;99.90;;;;;;6731953;88;20193;-77
2022/06/02 06:01:08;;;;;;;12.60;8.43;;;10.80;99.90;;;;;;6731850;88;20208;-78
2022/06/02 06:11:35;;;;;;;12.90;8.20;;;11.40;99.90;;;;;;6736308;88;20173;-77
2022/06/02 06:21:54;;;;;;;;;;;12.30;99.90;;;;;;6739782;88;20270;-77
2022/06/02 06:32:17;;;;;;;12.75;8.07;;;12.80;99.90;;;;;;6742734;88;20065;-80
2022/06/02 06:42:18;;;;;;;11.93;8.45;;;13.50;99.90;;;;;;6741959;88;20284;-78
2022/06/02 06:52:45;;;;;;;12.82;7.90;;;14.30;99.90;;;;;;6751075;88;20186;-78
2022/06/02 07:02:53;;;;;;;11.73;7.65;;;14.40;99.90;;;;;;6757412;88;20711;-79
2022/06/02 07:13:09;;;;;;;10.43;7.37;;;15.40;99.90;;;;;;6746638;88;20189;-77
2022/06/02 07:23:25;;;;;;;10.05;7.10;;;16.30;99.90;;;;;;6749920;88;20210;-78
2022/06/02 07:33:51;;;;;;;9.77;6.28;;;16.90;99.90;;;;;;6742134;88;20219;-79
2022/06/02 07:44:17;;;;;;;10.40;6.45;;;17.40;99.90;;;;;;6739126;88;20206;-78
2022/06/02 07:54:39;;;;;;;7.00;4.30;;;17.50;99.90;;;;;;6737905;88;20217;-78
2022/06/02 08:05:22;;;;;;;6.55;3.53;;;18.20;99.90;;;;;;6730447;88;20185;-78
2022/06/02 08:15:46;;;;;;;10.32;3.97;;;19.10;99.90;;;;;;6748539;88;20214;-78
2022/06/02 08:25:58;;;;;;;9.50;3.53;;;19.90;99.90;;;;;;6731773;88;20189;-78
2022/06/02 08:36:15;;;;;;;6.47;2.70;;;20.20;98.90;;;;;;6739072;88;20335;-79
2022/06/02 08:46:47;;;;;;;3.05;2.15;;;21.50;95.70;;;;;;6742677;88;20823;-79
2022/06/02 08:57:09;;;;;;;2.95;1.50;;;21.60;93.80;;;;;;6736523;88;20281;-77
2022/06/02 09:07:34;;;;;;;2.20;1.23;;;20.70;93.20;;;;;;6733683;88;20813;-79
2022/06/02 09:18:16;;;;;;;1.83;1.15;;;22.00;91.00;;;;;;6736473;88;20200;-79
2022/06/02 09:28:33;;;;;;;2.35;1.40;;;22.80;90.10;;;;;;6741581;88;20212;-78
2022/06/02 09:39:03;;;;;;;4.40;1.35;;;22.10;87.70;;;;;;6747909;88;20188;-78
2022/06/02 09:49:37;;;;;;;3.35;2.00;;;22.50;85.60;;;;;;6742253;88;20321;-79
2022/06/02 09:59:41;;;;;;;4.28;2.60;;;23.40;84.80;;;;;;6734185;88;20176;-78
2022/06/02 10:10:19;;;;;;;5.40;2.58;;;23.90;87.30;;;;;;6734593;88;20225;-78
2022/06/02 10:20:48;;;;;;;4.85;2.00;;;25.10;85.70;;;;;;6717114;88;20248;-78
2022/06/02 10:31:16;;;;;;;4.82;2.05;;;25.40;81.60;;;;;;6719895;88;20596;-79
2022/06/02 10:41:34;;;;;;;3.42;1.85;;;25.40;81.70;;;;;;6713688;88;20193;-79
2022/06/02 10:52:07;;;;;;;3.97;1.50;;;25.30;82.40;;;;;;6723128;88;20186;-81
2022/06/02 11:02:38;;;;;;;2.87;1.23;;;26.90;77.80;;;;;;6718578;88;20569;-80
2022/06/02 11:13:14;;;;;;;2.03;0.90;;;27.00;74.70;;;;;;6719702;88;20650;-79
2022/06/02 11:23:49;;;;;;;3.80;1.00;;;26.90;73.60;;;;;;6720456;88;20616;-79
2022/06/02 11:34:15;;;;;;;2.58;1.20;;;26.70;74.50;;;;;;6720897;88;20768;-79
2022/06/02 11:44:29;;;;;;;1.90;0.85;;;27.80;71.20;;;;;;6720077;88;20221;-78
2022/06/02 11:55:07;;;;;;;1.87;0.80;;;27.30;69.80;;;;;;6715678;88;20252;-78
2022/06/02 12:05:27;;;;;;;1.50;0.70;;;28.20;66.20;;;;;;6725052;88;20212;-82
2022/06/02 12:15:57;;;;;;;1.45;0.80;;;28.20;67.30;;;;;;6731718;88;20558;-80
2022/06/02 12:26:04;;;;;;;1.55;0.90;;;27.90;66.40;;;;;;6720029;88;20196;-78
2022/06/02 12:36:35;;;;;;;1.50;0.80;;;28.40;64.90;;;;;;6721635;88;20358;-79
2022/06/02 12:46:55;;;;;;;3.97;1.02;;;29.30;64.60;;;;;;6721326;88;20214;-79
2022/06/02 12:57:24;;;;;;;2.55;0.90;;;26.20;63.10;;;;;;6721947;88;20173;-79
2022/06/02 13:07:59;;;;;;;2.83;1.00;;;25.00;66.90;;;;;;6720657;88;20205;-78
2022/06/02 13:18:26;;;;;;;2.70;0.90;;;25.90;63.30;;;;;;6721029;88;20807;-79
2022/06/02 13:29:05;;;;;;;1.33;1.00;;;27.40;64.10;;;;;;6722099;88;20245;-81
2022/06/02 13:39:33;;;;;;;5.65;1.00;;;28.70;63.30;;;;;;6718631;88;20654;-79
2022/06/02 13:50:08;;;;;;;2.50;0.90;;;28.80;62.20;;;;;;6720624;88;20256;-78
2022/06/02 14:00:28;;;;;;;1.83;1.00;;;27.40;63.00;;;;;;6721052;88;20250;-79
2022/06/02 14:10:52;;;;;;;2.58;1.05;;;27.50;62.30;;;;;;6720455;88;20181;-80
2022/06/02 14:21:16;;;;;;;2.25;0.98;;;28.40;62.40;;;;;;6720576;88;20703;-77
2022/06/02 14:31:22;;;;;;;2.05;1.10;;;28.00;61.00;;;;;;6720510;88;20242;-79
2022/06/02 14:41:38;;;;;;;1.70;0.80;;;26.80;63.40;;;;;;6720802;88;20232;-78
2022/06/02 14:51:42;;;;;;;2.03;0.90;;;27.10;60.90;;;;;;6720176;88;20678;-79
2022/06/02 15:01:57;;;;;;;1.80;1.00;;;25.40;60.60;;;;;;6720398;88;20185;-79
2022/06/02 15:12:32;;;;;;;1.20;0.85;;;25.60;62.80;;;;;;6716060;88;20218;-80
2022/06/02 15:22:46;;;;;;;3.15;1.02;;;26.00;61.30;;;;;;6718797;88;20211;-78
2022/06/02 15:33:05;;;;;;;2.28;0.70;;;26.10;61.60;;;;;;6719643;88;20219;-78
2022/06/02 15:43:43;;;;;;;2.53;0.90;;;26.70;61.80;;;;;;6718811;88;21004;-79
2022/06/02 15:54:22;;;;;;;1.48;0.90;;;28.00;60.10;;;;;;6719839;88;20189;-80
2022/06/02 16:05:01;;;;;;;1.60;0.90;;;28.30;60.20;;;;;;6732409;77;20229;-80
2022/06/02 16:15:43;;;;;;;2.35;0.80;;;27.90;59.80;;;;;;6734753;88;20348;-80
2022/06/02 16:25:58;;;;;;;1.95;0.90;;;28.40;58.70;;;;;;6718390;88;20276;-80
2022/06/02 16:36:04;;;;;;;3.83;1.65;;;26.40;60.90;;;;;;6716195;88;20213;-78
2022/06/02 16:46:33;;;;;;;1.95;0.80;;;26.20;60.90;;;;;;6710823;88;20644;-77
2022/06/02 16:56:33;;;;;;;1.60;0.90;;;25.40;60.80;;;;;;6716605;88;20738;-78
2022/06/02 17:06:53;;;;;;;2.05;0.85;;;25.00;61.40;;;;;;6721970;88;20317;-78
2022/06/02 17:17:03;;;;;;;2.47;1.08;;;25.50;61.00;;;;;;6714562;88;20178;-78
2022/06/02 17:27:29;;;;;;;1.45;0.80;;;26.70;60.70;;;;;;6718230;88;20214;-79
2022/06/02 17:38:11;;;;;;;1.55;1.00;;;26.10;60.60;;;;;;6708171;88;20227;-79
2022/06/02 17:48:49;;;;;;;1.55;0.90;;;25.30;61.50;;;;;;6703714;88;20355;-79
2022/06/02 17:59:05;;;;;;;1.58;1.10;;;26.80;61.90;;;;;;6717313;88;20224;-79
2022/06/02 18:09:28;;;;;;;1.42;1.00;;;25.70;61.50;;;;;;6723553;88;20329;-79
2022/06/02 18:20:13;;;;;;;1.60;0.98;;;25.50;62.40;;;;;;6714374;88;20232;-77
2022/06/02 18:30:28;;;;;;;1.90;1.10;;;26.60;61.20;;;;;;6687335;88;20189;-80
2022/06/02 18:40:42;;;;;;;2.35;1.35;;;27.20;61.80;;;;;;6716859;88;20186;-78
2022/06/02 18:51:14;;;;;;;3.30;1.40;;;25.20;63.10;;;;;;6715898;88;20185;-80
2022/06/02 19:01:42;;;;;;;3.15;1.30;;;23.70;65.20;;;;;;6715981;88;20274;-80
2022/06/02 19:23:12;;;;;;;2.47;1.20;;;22.20;68.30;;;;;;6712769;88;20697;-78
2022/06/02 19:33:29;;;;;;;4.37;2.80;;;21.90;69.20;;;;;;6706030;88;20721;-78
2022/06/02 19:43:47;;;;;;;3.78;2.00;;;21.30;71.80;;;;;;6708869;88;20365;-80
2022/06/02 19:54:05;;;;;;;2.90;2.15;;;20.50;74.30;;;;;;6704135;88;20220;-82
2022/06/02 20:04:13;;;;;;;3.65;2.15;;;20.00;75.80;;;;;;6713653;88;20210;-83
2022/06/02 20:14:33;;;;;;;3.85;2.40;;;19.80;77.20;;;;;;6713804;88;20186;-82
2022/06/02 20:25:11;;;;;;;3.10;2.10;;;19.30;79.10;;;;;;6705863;88;20213;-81
2022/06/02 20:35:15;;;;;;;4.28;2.42;;;19.10;81.30;;;;;;6706200;88;20220;-78
2022/06/02 20:45:34;;;;;;;4.65;2.60;;;18.60;83.70;;;;;;6705032;88;20206;-80
2022/06/02 20:55:44;;;;;;;3.20;2.03;;;18.20;86.20;;;;;;6712232;88;20178;-80
2022/06/02 21:05:58;;;;;;;3.92;1.87;;;17.80;88.50;;;;;;6707560;88;20210;-80
2022/06/02 21:16:10;;;;;;;4.75;2.10;;;17.40;90.30;;;;;;6707280;88;20221;-79
2022/06/02 21:26:30;;;;;;;4.22;2.60;;;17.20;91.90;;;;;;6715371;88;20202;-78
2022/06/02 21:36:42;;;;;;;4.05;1.90;;;17.10;93.00;;;;;;6716678;88;20213;-79
2022/06/02 21:47:01;;;;;;;3.90;2.17;;;16.70;95.20;;;;;;6706726;88;20666;-79
2022/06/02 21:57:17;;;;;;;3.40;1.85;;;16.50;97.10;;;;;;6705916;88;20314;-80
2022/06/02 22:07:29;;;;;;;3.20;2.40;;;16.30;99.00;;;;;;6702845;88;20194;-79
2022/06/02 22:17:38;;;;;;;3.37;2.45;;;16.30;99.90;;;;;;6706525;88;20230;-78
2022/06/02 22:27:50;;;;;;;4.85;2.22;;;16.20;99.90;;;;;;6706302;88;20206;-78
2022/06/02 22:49:20;;;;;;;3.00;2.10;;;15.60;99.90;;;;;;6730765;88;20743;-79
2022/06/02 22:59:39;;;;;;;3.87;2.10;;;15.40;99.90;;;;;;6715966;88;20193;-78
2022/06/02 23:10:05;;;;;;;3.70;2.30;;;15.20;99.90;;;;;;6708262;88;20554;-78
2022/06/02 23:20:32;;;;;;;4.28;2.47;;;15.20;99.90;;;;;;6713976;88;20189;-78
2022/06/02 23:30:52;;;;;;;4.55;2.62;;;15.00;99.90;;;;;;6714724;88;20233;-78
2022/06/02 23:41:15;;;;;;;3.60;2.45;;;15.20;99.90;;;;;;6717834;88;20212;-78
2022/06/02 23:51:50;;;;;;;5.68;2.50;;;14.90;99.90;;;;;;6711257;88;20238;-77
